sensor_id;sensor_type;location;lat;lon;timestamp;temperature;humidity
5962;DHT22;3007;50.770;0.250;2023-02-01T00:00:32;4.70;99.90
5962;DHT22;3007;50.770;0.250;2023-02-01T00:03:00;4.60;99.90
5962;DHT22;3007;50.770;0.250;2023-02-01T00:05:27;4.60;99.90
5962;DHT22;3007;50.770;0.250;2023-02-01T00:07:54;4.60;99.90
5962;DHT22;3007;50.770;0.250;2023-02-01T00:10:22;4.60;99.90
5962;DHT22;3007;50.770;0.250;2023-02-01T00:12:49;4.60;99.90
5962;DHT22;3007;50.770;0.250;2023-02-01T00:15:16;4.60;99.90
5962;DHT22;3007;50.770;0.250;2023-02-01T00:17:43;4.60;99.90
5962;DHT22;3007;50.770;0.250;2023-02-01T00:20:10;4.60;99.90
5962;DHT22;3007;50.770;0.250;2023-02-01T00:22:37;4.60;99.90
5962;DHT22;3007;50.770;0.250;2023-02-01T00:25:05;4.50;99.90
5962;DHT22;3007;50.770;0.250;2023-02-01T00:27:34;4.50;99.90
5962;DHT22;3007;50.770;0.250;2023-02-01T00:30:01;4.50;99.90
5962;DHT22;3007;50.770;0.250;2023-02-01T00:32:27;4.50;99.90
5962;DHT22;3007;50.770;0.250;2023-02-01T00:34:57;4.50;99.90
5962;DHT22;3007;50.770;0.250;2023-02-01T00:37:24;4.60;99.90
5962;DHT22;3007;50.770;0.250;2023-02-01T00:39:51;4.60;99.90
5962;DHT22;3007;50.770;0.250;2023-02-01T00:42:20;4.60;99.90
5962;DHT22;3007;50.770;0.250;2023-02-01T00:44:48;4.60;99.90
5962;DHT22;3007;50.770;0.250;2023-02-01T00:47:15;4.60;99.90
5962;DHT22;3007;50.770;0.250;2023-02-01T00:49:42;4.60;99.90
5962;DHT22;3007;50.770;0.250;2023-02-01T00:52:09;4.60;99.90
5962;DHT22;3007;50.770;0.250;2023-02-01T00:54:38;4.60;99.90
5962;DHT22;3007;50.770;0.250;2023-02-01T00:57:05;4.60;99.90
5962;DHT22;3007;50.770;0.250;2023-02-01T00:59:32;4.60;99.90
5962;DHT22;3007;50.770;0.250;2023-02-01T01:02:00;4.60;99.90
5962;DHT22;3007;50.770;0.250;2023-02-01T01:04:27;4.60;99.90
5962;DHT22;3007;50.770;0.250;2023-02-01T01:06:54;4.60;99.90
5962;DHT22;3007;50.770;0.250;2023-02-01T01:09:21;4.60;99.90
5962;DHT22;3007;50.770;0.250;2023-02-01T01:11:48;4.60;99.90
5962;DHT22;3007;50.770;0.250;2023-02-01T01:14:16;4.60;99.90
5962;DHT22;3007;50.770;0.250;2023-02-01T01:16:43;4.60;99.90
5962;DHT22;3007;50.770;0.250;2023-02-01T01:19:11;4.60;99.90
5962;DHT22;3007;50.770;0.250;2023-02-01T01:21:38;4.60;99.90
5962;DHT22;3007;50.770;0.250;2023-02-01T01:24:05;4.60;99.90
5962;DHT22;3007;50.770;0.250;2023-02-01T01:26:32;4.60;99.90
5962;DHT22;3007;50.770;0.250;2023-02-01T01:28:59;4.50;99.90
5962;DHT22;3007;50.770;0.250;2023-02-01T01:31:27;4.50;99.90
5962;DHT22;3007;50.770;0.250;2023-02-01T01:33:55;4.50;99.90
5962;DHT22;3007;50.770;0.250;2023-02-01T01:36:25;4.50;99.90
5962;DHT22;3007;50.770;0.250;2023-02-01T01:38:52;4.50;99.90
5962;DHT22;3007;50.770;0.250;2023-02-01T01:41:22;4.50;99.90
5962;DHT22;3007;50.770;0.250;2023-02-01T01:43:54;4.50;99.90
5962;DHT22;3007;50.770;0.250;2023-02-01T01:46:24;4.50;99.90
5962;DHT22;3007;50.770;0.250;2023-02-01T01:48:56;4.40;99.90
5962;DHT22;3007;50.770;0.250;2023-02-01T01:51:26;4.40;99.90
5962;DHT22;3007;50.770;0.250;2023-02-01T01:53:59;4.40;99.90
5962;DHT22;3007;50.770;0.250;2023-02-01T01:56:28;4.40;99.90
5962;DHT22;3007;50.770;0.250;2023-02-01T01:58:56;4.30;99.90
5962;DHT22;3007;50.770;0.250;2023-02-01T02:01:23;4.30;99.90
5962;DHT22;3007;50.770;0.250;2023-02-01T02:03:51;4.40;99.90
5962;DHT22;3007;50.770;0.250;2023-02-01T02:06:28;4.30;99.90
5962;DHT22;3007;50.770;0.250;2023-02-01T02:08:56;4.30;99.90
5962;DHT22;3007;50.770;0.250;2023-02-01T02:11:23;4.30;99.90
5962;DHT22;3007;50.770;0.250;2023-02-01T02:13:52;4.30;99.90
5962;DHT22;3007;50.770;0.250;2023-02-01T02:16:50;4.20;99.90
5962;DHT22;3007;50.770;0.250;2023-02-01T02:19:38;4.20;99.90
5962;DHT22;3007;50.770;0.250;2023-02-01T02:22:29;4.20;99.90
5962;DHT22;3007;50.770;0.250;2023-02-01T02:27:59;4.10;99.90
5962;DHT22;3007;50.770;0.250;2023-02-01T02:30:45;4.10;99.90
5962;DHT22;3007;50.770;0.250;2023-02-01T02:33:47;4.10;99.90
5962;DHT22;3007;50.770;0.250;2023-02-01T02:36:21;4.10;99.90
5962;DHT22;3007;50.770;0.250;2023-02-01T02:39:01;4.10;99.90
5962;DHT22;3007;50.770;0.250;2023-02-01T02:41:34;4.00;99.90
5962;DHT22;3007;50.770;0.250;2023-02-01T02:44:28;4.00;99.90
5962;DHT22;3007;50.770;0.250;2023-02-01T02:47:22;4.00;99.90
5962;DHT22;3007;50.770;0.250;2023-02-01T02:49:56;4.00;99.90
5962;DHT22;3007;50.770;0.250;2023-02-01T02:52:45;4.00;99.90
5962;DHT22;3007;50.770;0.250;2023-02-01T02:55:32;4.00;99.90
5962;DHT22;3007;50.770;0.250;2023-02-01T02:58:03;4.10;99.90
5962;DHT22;3007;50.770;0.250;2023-02-01T03:00:48;4.10;99.90
5962;DHT22;3007;50.770;0.250;2023-02-01T03:03:36;4.10;99.90
5962;DHT22;3007;50.770;0.250;2023-02-01T03:06:23;4.20;99.90
5962;DHT22;3007;50.770;0.250;2023-02-01T03:08:50;4.20;99.90
5962;DHT22;3007;50.770;0.250;2023-02-01T03:11:20;4.20;99.90
5962;DHT22;3007;50.770;0.250;2023-02-01T03:13:51;4.20;99.90
5962;DHT22;3007;50.770;0.250;2023-02-01T03:16:21;4.30;99.90
5962;DHT22;3007;50.770;0.250;2023-02-01T03:18:55;4.30;99.90
5962;DHT22;3007;50.770;0.250;2023-02-01T03:21:29;4.30;99.90
5962;DHT22;3007;50.770;0.250;2023-02-01T03:24:00;4.30;99.90
5962;DHT22;3007;50.770;0.250;2023-02-01T03:26:30;4.30;99.90
5962;DHT22;3007;50.770;0.250;2023-02-01T03:29:02;4.30;99.90
5962;DHT22;3007;50.770;0.250;2023-02-01T03:31:32;4.30;99.90
5962;DHT22;3007;50.770;0.250;2023-02-01T03:33:59;4.30;99.90
5962;DHT22;3007;50.770;0.250;2023-02-01T03:36:31;4.40;99.90
5962;DHT22;3007;50.770;0.250;2023-02-01T03:39:05;4.40;99.90
5962;DHT22;3007;50.770;0.250;2023-02-01T03:41:37;4.40;99.90
5962;DHT22;3007;50.770;0.250;2023-02-01T03:44:17;4.50;99.90
5962;DHT22;3007;50.770;0.250;2023-02-01T03:46:49;4.50;99.90
5962;DHT22;3007;50.770;0.250;2023-02-01T03:49:20;4.60;99.90
5962;DHT22;3007;50.770;0.250;2023-02-01T03:51:51;4.60;99.90
5962;DHT22;3007;50.770;0.250;2023-02-01T03:54:19;4.60;99.90
5962;DHT22;3007;50.770;0.250;2023-02-01T03:56:47;4.60;99.90
5962;DHT22;3007;50.770;0.250;2023-02-01T03:59:15;4.60;99.90
5962;DHT22;3007;50.770;0.250;2023-02-01T04:01:42;4.60;99.90
5962;DHT22;3007;50.770;0.250;2023-02-01T04:04:09;4.70;99.90
5962;DHT22;3007;50.770;0.250;2023-02-01T04:06:45;4.60;99.90
5962;DHT22;3007;50.770;0.250;2023-02-01T04:09:13;4.60;99.90
5962;DHT22;3007;50.770;0.250;2023-02-01T04:11:40;4.60;99.90
5962;DHT22;3007;50.770;0.250;2023-02-01T04:14:08;4.60;99.90
5962;DHT22;3007;50.770;0.250;2023-02-01T04:16:35;4.50;99.90
5962;DHT22;3007;50.770;0.250;2023-02-01T04:19:02;4.50;99.90
5962;DHT22;3007;50.770;0.250;2023-02-01T04:21:29;4.50;99.90
5962;DHT22;3007;50.770;0.250;2023-02-01T04:23:56;4.50;99.90
5962;DHT22;3007;50.770;0.250;2023-02-01T04:26:24;4.50;99.90
5962;DHT22;3007;50.770;0.250;2023-02-01T04:28:51;4.50;99.90
5962;DHT22;3007;50.770;0.250;2023-02-01T04:31:19;4.50;99.90
5962;DHT22;3007;50.770;0.250;2023-02-01T04:33:51;4.50;99.90
5962;DHT22;3007;50.770;0.250;2023-02-01T04:36:18;4.50;99.90
5962;DHT22;3007;50.770;0.250;2023-02-01T04:38:47;4.40;99.90
5962;DHT22;3007;50.770;0.250;2023-02-01T04:41:14;4.40;99.90
5962;DHT22;3007;50.770;0.250;2023-02-01T04:43:45;4.40;99.90
5962;DHT22;3007;50.770;0.250;2023-02-01T04:46:12;4.40;99.90
5962;DHT22;3007;50.770;0.250;2023-02-01T04:48:39;4.40;99.90
5962;DHT22;3007;50.770;0.250;2023-02-01T04:51:07;4.40;99.90
5962;DHT22;3007;50.770;0.250;2023-02-01T04:53:34;4.40;99.90
5962;DHT22;3007;50.770;0.250;2023-02-01T04:56:01;4.30;99.90
5962;DHT22;3007;50.770;0.250;2023-02-01T04:58:28;4.30;99.90
5962;DHT22;3007;50.770;0.250;2023-02-01T05:00:56;4.30;99.90
5962;DHT22;3007;50.770;0.250;2023-02-01T05:03:23;4.40;99.90
5962;DHT22;3007;50.770;0.250;2023-02-01T05:05:50;4.40;99.90
5962;DHT22;3007;50.770;0.250;2023-02-01T05:08:19;4.30;99.90
5962;DHT22;3007;50.770;0.250;2023-02-01T05:10:48;4.30;99.90
5962;DHT22;3007;50.770;0.250;2023-02-01T05:13:15;4.30;99.90
5962;DHT22;3007;50.770;0.250;2023-02-01T05:16:00;4.30;99.90
5962;DHT22;3007;50.770;0.250;2023-02-01T05:18:27;4.30;99.90
5962;DHT22;3007;50.770;0.250;2023-02-01T05:20:54;4.40;99.90
5962;DHT22;3007;50.770;0.250;2023-02-01T05:23:21;4.30;99.90
5962;DHT22;3007;50.770;0.250;2023-02-01T05:25:48;4.30;99.90
5962;DHT22;3007;50.770;0.250;2023-02-01T05:28:15;4.20;99.90
5962;DHT22;3007;50.770;0.250;2023-02-01T05:30:42;4.20;99.90
5962;DHT22;3007;50.770;0.250;2023-02-01T05:33:10;4.20;99.90
5962;DHT22;3007;50.770;0.250;2023-02-01T05:35:37;4.20;99.90
5962;DHT22;3007;50.770;0.250;2023-02-01T05:38:04;4.20;99.90
5962;DHT22;3007;50.770;0.250;2023-02-01T05:40:30;4.20;99.90
5962;DHT22;3007;50.770;0.250;2023-02-01T05:42:57;4.10;99.90
5962;DHT22;3007;50.770;0.250;2023-02-01T05:45:24;4.20;99.90
5962;DHT22;3007;50.770;0.250;2023-02-01T05:47:51;4.20;99.90
5962;DHT22;3007;50.770;0.250;2023-02-01T05:50:20;4.20;99.90
5962;DHT22;3007;50.770;0.250;2023-02-01T05:52:47;4.20;99.90
5962;DHT22;3007;50.770;0.250;2023-02-01T05:55:14;4.20;99.90
5962;DHT22;3007;50.770;0.250;2023-02-01T05:57:41;4.20;99.90
5962;DHT22;3007;50.770;0.250;2023-02-01T06:00:09;4.20;99.90
5962;DHT22;3007;50.770;0.250;2023-02-01T06:02:36;4.20;99.90
5962;DHT22;3007;50.770;0.250;2023-02-01T06:05:04;4.20;99.90
5962;DHT22;3007;50.770;0.250;2023-02-01T06:07:32;4.20;99.90
5962;DHT22;3007;50.770;0.250;2023-02-01T06:09:59;4.20;99.90
5962;DHT22;3007;50.770;0.250;2023-02-01T06:12:26;4.20;99.90
5962;DHT22;3007;50.770;0.250;2023-02-01T06:14:54;4.20;99.90
5962;DHT22;3007;50.770;0.250;2023-02-01T06:17:20;4.20;99.90
5962;DHT22;3007;50.770;0.250;2023-02-01T06:19:47;4.20;99.90
5962;DHT22;3007;50.770;0.250;2023-02-01T06:22:14;4.20;99.90
5962;DHT22;3007;50.770;0.250;2023-02-01T06:24:43;4.20;99.90
5962;DHT22;3007;50.770;0.250;2023-02-01T06:27:10;4.20;99.90
5962;DHT22;3007;50.770;0.250;2023-02-01T06:29:38;4.20;99.90
5962;DHT22;3007;50.770;0.250;2023-02-01T06:32:05;4.20;99.90
5962;DHT22;3007;50.770;0.250;2023-02-01T06:34:32;4.20;99.90
5962;DHT22;3007;50.770;0.250;2023-02-01T06:36:58;4.20;99.90
5962;DHT22;3007;50.770;0.250;2023-02-01T06:39:25;4.30;99.90
5962;DHT22;3007;50.770;0.250;2023-02-01T06:41:55;4.20;99.90
5962;DHT22;3007;50.770;0.250;2023-02-01T06:44:22;4.30;99.90
5962;DHT22;3007;50.770;0.250;2023-02-01T06:46:49;4.30;99.90
5962;DHT22;3007;50.770;0.250;2023-02-01T06:49:15;4.30;99.90
5962;DHT22;3007;50.770;0.250;2023-02-01T06:51:43;4.30;99.90
5962;DHT22;3007;50.770;0.250;2023-02-01T06:54:10;4.30;99.90
5962;DHT22;3007;50.770;0.250;2023-02-01T06:56:37;4.30;99.90
5962;DHT22;3007;50.770;0.250;2023-02-01T06:59:06;4.20;99.90
5962;DHT22;3007;50.770;0.250;2023-02-01T07:01:34;4.20;99.90
5962;DHT22;3007;50.770;0.250;2023-02-01T07:04:01;4.20;99.90
5962;DHT22;3007;50.770;0.250;2023-02-01T07:06:28;4.30;99.90
5962;DHT22;3007;50.770;0.250;2023-02-01T07:08:55;4.20;99.90
5962;DHT22;3007;50.770;0.250;2023-02-01T07:11:23;4.30;99.90
5962;DHT22;3007;50.770;0.250;2023-02-01T07:13:52;4.30;99.90
5962;DHT22;3007;50.770;0.250;2023-02-01T07:16:21;4.30;99.90
5962;DHT22;3007;50.770;0.250;2023-02-01T07:18:49;4.30;99.90
5962;DHT22;3007;50.770;0.250;2023-02-01T07:21:16;4.40;99.90
5962;DHT22;3007;50.770;0.250;2023-02-01T07:23:43;4.50;99.90
5962;DHT22;3007;50.770;0.250;2023-02-01T07:26:11;4.60;99.90
5962;DHT22;3007;50.770;0.250;2023-02-01T07:28:39;4.70;99.90
5962;DHT22;3007;50.770;0.250;2023-02-01T07:31:07;4.70;99.90
5962;DHT22;3007;50.770;0.250;2023-02-01T07:33:36;4.80;99.90
5962;DHT22;3007;50.770;0.250;2023-02-01T07:36:06;4.80;99.90
5962;DHT22;3007;50.770;0.250;2023-02-01T07:38:36;4.80;99.90
5962;DHT22;3007;50.770;0.250;2023-02-01T07:41:04;4.80;99.90
5962;DHT22;3007;50.770;0.250;2023-02-01T07:43:32;4.90;99.90
5962;DHT22;3007;50.770;0.250;2023-02-01T07:45:59;4.90;99.90
5962;DHT22;3007;50.770;0.250;2023-02-01T07:48:27;5.00;99.90
5962;DHT22;3007;50.770;0.250;2023-02-01T07:50:58;5.00;99.90
5962;DHT22;3007;50.770;0.250;2023-02-01T07:53:26;5.10;99.90
5962;DHT22;3007;50.770;0.250;2023-02-01T07:55:52;5.20;99.90
5962;DHT22;3007;50.770;0.250;2023-02-01T07:58:21;5.20;99.90
5962;DHT22;3007;50.770;0.250;2023-02-01T08:00:48;5.20;99.90
5962;DHT22;3007;50.770;0.250;2023-02-01T08:03:33;5.20;99.90
5962;DHT22;3007;50.770;0.250;2023-02-01T08:06:01;5.20;99.90
5962;DHT22;3007;50.770;0.250;2023-02-01T08:08:28;5.20;99.90
5962;DHT22;3007;50.770;0.250;2023-02-01T08:10:57;5.20;99.90
5962;DHT22;3007;50.770;0.250;2023-02-01T08:13:24;5.30;99.90
5962;DHT22;3007;50.770;0.250;2023-02-01T08:15:51;5.30;99.90
5962;DHT22;3007;50.770;0.250;2023-02-01T08:18:18;5.40;99.90
5962;DHT22;3007;50.770;0.250;2023-02-01T08:20:46;5.40;99.90
5962;DHT22;3007;50.770;0.250;2023-02-01T08:23:14;5.50;99.90
5962;DHT22;3007;50.770;0.250;2023-02-01T08:25:41;5.50;99.90
5962;DHT22;3007;50.770;0.250;2023-02-01T08:28:08;5.50;99.90
5962;DHT22;3007;50.770;0.250;2023-02-01T08:30:36;5.50;99.90
5962;DHT22;3007;50.770;0.250;2023-02-01T08:33:04;5.50;99.90
5962;DHT22;3007;50.770;0.250;2023-02-01T08:35:34;5.50;99.90
5962;DHT22;3007;50.770;0.250;2023-02-01T08:38:01;5.50;99.90
5962;DHT22;3007;50.770;0.250;2023-02-01T08:40:29;5.60;99.90
5962;DHT22;3007;50.770;0.250;2023-02-01T08:42:56;5.60;99.90
5962;DHT22;3007;50.770;0.250;2023-02-01T08:45:26;5.70;99.90
5962;DHT22;3007;50.770;0.250;2023-02-01T08:47:54;5.80;99.90
5962;DHT22;3007;50.770;0.250;2023-02-01T08:50:22;5.90;99.90
5962;DHT22;3007;50.770;0.250;2023-02-01T08:52:49;5.90;99.90
5962;DHT22;3007;50.770;0.250;2023-02-01T08:55:16;6.00;99.90
5962;DHT22;3007;50.770;0.250;2023-02-01T08:57:47;6.00;99.90
5962;DHT22;3007;50.770;0.250;2023-02-01T09:00:16;6.00;99.90
5962;DHT22;3007;50.770;0.250;2023-02-01T09:02:43;6.00;99.90
5962;DHT22;3007;50.770;0.250;2023-02-01T09:05:11;6.00;99.90
5962;DHT22;3007;50.770;0.250;2023-02-01T09:07:39;6.00;99.90
5962;DHT22;3007;50.770;0.250;2023-02-01T09:10:07;5.90;99.90
5962;DHT22;3007;50.770;0.250;2023-02-01T09:12:34;5.90;99.90
5962;DHT22;3007;50.770;0.250;2023-02-01T09:15:03;6.00;99.90
5962;DHT22;3007;50.770;0.250;2023-02-01T09:17:35;6.00;99.90
5962;DHT22;3007;50.770;0.250;2023-02-01T09:20:03;6.10;99.90
5962;DHT22;3007;50.770;0.250;2023-02-01T09:22:30;6.20;99.90
5962;DHT22;3007;50.770;0.250;2023-02-01T09:24:57;6.30;99.90
5962;DHT22;3007;50.770;0.250;2023-02-01T09:27:23;6.50;99.90
5962;DHT22;3007;50.770;0.250;2023-02-01T09:29:50;6.50;99.90
5962;DHT22;3007;50.770;0.250;2023-02-01T09:32:20;6.70;99.90
5962;DHT22;3007;50.770;0.250;2023-02-01T09:34:47;6.70;99.90
5962;DHT22;3007;50.770;0.250;2023-02-01T09:37:15;6.70;99.90
5962;DHT22;3007;50.770;0.250;2023-02-01T09:39:42;6.80;99.90
5962;DHT22;3007;50.770;0.250;2023-02-01T09:42:21;6.80;99.90
5962;DHT22;3007;50.770;0.250;2023-02-01T09:45:06;6.80;99.90
5962;DHT22;3007;50.770;0.250;2023-02-01T09:47:46;6.80;99.90
5962;DHT22;3007;50.770;0.250;2023-02-01T09:50:17;6.80;99.90
5962;DHT22;3007;50.770;0.250;2023-02-01T09:52:52;6.80;99.90
5962;DHT22;3007;50.770;0.250;2023-02-01T09:55:25;6.80;99.90
5962;DHT22;3007;50.770;0.250;2023-02-01T09:57:57;6.80;99.90
5962;DHT22;3007;50.770;0.250;2023-02-01T10:00:29;6.80;99.90
5962;DHT22;3007;50.770;0.250;2023-02-01T10:02:58;6.90;99.90
5962;DHT22;3007;50.770;0.250;2023-02-01T10:05:40;6.90;99.90
5962;DHT22;3007;50.770;0.250;2023-02-01T10:08:12;7.10;99.90
5962;DHT22;3007;50.770;0.250;2023-02-01T10:10:47;7.20;99.90
5962;DHT22;3007;50.770;0.250;2023-02-01T10:13:35;7.40;99.90
5962;DHT22;3007;50.770;0.250;2023-02-01T10:16:16;7.50;99.90
5962;DHT22;3007;50.770;0.250;2023-02-01T10:21:45;7.80;99.90
5962;DHT22;3007;50.770;0.250;2023-02-01T10:24:24;8.10;99.90
5962;DHT22;3007;50.770;0.250;2023-02-01T10:26:55;8.20;99.90
5962;DHT22;3007;50.770;0.250;2023-02-01T10:29:27;8.30;99.90
5962;DHT22;3007;50.770;0.250;2023-02-01T10:31:56;8.40;99.90
5962;DHT22;3007;50.770;0.250;2023-02-01T10:34:27;8.40;99.90
5962;DHT22;3007;50.770;0.250;2023-02-01T10:36:56;8.50;99.90
5962;DHT22;3007;50.770;0.250;2023-02-01T10:39:24;8.60;99.90
5962;DHT22;3007;50.770;0.250;2023-02-01T10:41:51;8.60;99.90
5962;DHT22;3007;50.770;0.250;2023-02-01T10:44:20;8.70;99.90
5962;DHT22;3007;50.770;0.250;2023-02-01T10:46:49;8.80;99.90
5962;DHT22;3007;50.770;0.250;2023-02-01T10:49:18;8.90;99.90
5962;DHT22;3007;50.770;0.250;2023-02-01T10:51:54;8.90;99.90
5962;DHT22;3007;50.770;0.250;2023-02-01T10:54:33;9.00;99.90
5962;DHT22;3007;50.770;0.250;2023-02-01T10:57:00;8.90;99.90
5962;DHT22;3007;50.770;0.250;2023-02-01T10:59:29;8.90;99.90
5962;DHT22;3007;50.770;0.250;2023-02-01T11:01:59;8.80;99.90
5962;DHT22;3007;50.770;0.250;2023-02-01T11:04:32;8.70;99.90
5962;DHT22;3007;50.770;0.250;2023-02-01T11:07:08;8.70;99.90
5962;DHT22;3007;50.770;0.250;2023-02-01T11:09:40;8.60;99.90
5962;DHT22;3007;50.770;0.250;2023-02-01T11:12:32;8.60;99.90
5962;DHT22;3007;50.770;0.250;2023-02-01T11:15:11;8.60;99.90
5962;DHT22;3007;50.770;0.250;2023-02-01T11:17:41;8.60;99.90
5962;DHT22;3007;50.770;0.250;2023-02-01T11:20:15;8.60;99.90
5962;DHT22;3007;50.770;0.250;2023-02-01T11:22:47;8.70;99.90
5962;DHT22;3007;50.770;0.250;2023-02-01T11:25:16;8.70;99.90
5962;DHT22;3007;50.770;0.250;2023-02-01T11:27:44;8.70;99.90
5962;DHT22;3007;50.770;0.250;2023-02-01T11:30:17;8.70;99.90
5962;DHT22;3007;50.770;0.250;2023-02-01T11:32:45;8.70;99.90
5962;DHT22;3007;50.770;0.250;2023-02-01T11:35:18;8.70;99.90
5962;DHT22;3007;50.770;0.250;2023-02-01T11:37:52;8.70;99.90
5962;DHT22;3007;50.770;0.250;2023-02-01T11:40:27;8.60;99.90
5962;DHT22;3007;50.770;0.250;2023-02-01T11:42:55;8.60;99.90
5962;DHT22;3007;50.770;0.250;2023-02-01T11:45:26;8.60;99.90
5962;DHT22;3007;50.770;0.250;2023-02-01T11:47:54;8.60;99.90
5962;DHT22;3007;50.770;0.250;2023-02-01T11:50:28;8.60;99.90
5962;DHT22;3007;50.770;0.250;2023-02-01T11:53:19;8.70;99.90
5962;DHT22;3007;50.770;0.250;2023-02-01T11:56:00;8.70;99.90
5962;DHT22;3007;50.770;0.250;2023-02-01T12:01:51;8.60;99.90
5962;DHT22;3007;50.770;0.250;2023-02-01T12:05:00;8.70;99.90
5962;DHT22;3007;50.770;0.250;2023-02-01T12:07:43;8.70;99.90
5962;DHT22;3007;50.770;0.250;2023-02-01T12:10:25;8.70;99.90
5962;DHT22;3007;50.770;0.250;2023-02-01T12:13:01;8.70;99.90
5962;DHT22;3007;50.770;0.250;2023-02-01T12:15:44;8.70;99.90
5962;DHT22;3007;50.770;0.250;2023-02-01T12:18:41;8.70;99.90
5962;DHT22;3007;50.770;0.250;2023-02-01T12:21:24;8.70;99.90
5962;DHT22;3007;50.770;0.250;2023-02-01T12:24:02;8.70;99.90
5962;DHT22;3007;50.770;0.250;2023-02-01T12:26:45;8.70;99.90
5962;DHT22;3007;50.770;0.250;2023-02-01T12:29:32;8.70;99.90
5962;DHT22;3007;50.770;0.250;2023-02-01T12:32:09;8.70;99.90
5962;DHT22;3007;50.770;0.250;2023-02-01T12:34:59;8.70;99.90
5962;DHT22;3007;50.770;0.250;2023-02-01T12:37:40;8.80;99.90
5962;DHT22;3007;50.770;0.250;2023-02-01T12:40:20;8.80;99.90
5962;DHT22;3007;50.770;0.250;2023-02-01T12:42:57;8.90;99.90
5962;DHT22;3007;50.770;0.250;2023-02-01T12:45:30;8.90;99.90
5962;DHT22;3007;50.770;0.250;2023-02-01T12:48:01;8.90;99.90
5962;DHT22;3007;50.770;0.250;2023-02-01T12:50:34;8.90;99.90
5962;DHT22;3007;50.770;0.250;2023-02-01T12:53:09;9.00;99.90
5962;DHT22;3007;50.770;0.250;2023-02-01T12:55:43;9.00;99.90
5962;DHT22;3007;50.770;0.250;2023-02-01T12:58:17;9.10;99.90
5962;DHT22;3007;50.770;0.250;2023-02-01T13:00:49;9.10;99.90
5962;DHT22;3007;50.770;0.250;2023-02-01T13:03:27;9.10;99.90
5962;DHT22;3007;50.770;0.250;2023-02-01T13:06:00;9.10;99.90
5962;DHT22;3007;50.770;0.250;2023-02-01T13:08:39;9.10;99.90
5962;DHT22;3007;50.770;0.250;2023-02-01T13:11:11;9.10;99.90
5962;DHT22;3007;50.770;0.250;2023-02-01T13:13:48;9.00;99.90
5962;DHT22;3007;50.770;0.250;2023-02-01T13:16:25;9.00;99.90
5962;DHT22;3007;50.770;0.250;2023-02-01T13:19:10;8.90;99.90
5962;DHT22;3007;50.770;0.250;2023-02-01T13:21:43;8.90;99.90
5962;DHT22;3007;50.770;0.250;2023-02-01T13:24:24;8.90;99.90
5962;DHT22;3007;50.770;0.250;2023-02-01T13:26:54;9.00;99.90
5962;DHT22;3007;50.770;0.250;2023-02-01T13:29:23;9.00;99.90
5962;DHT22;3007;50.770;0.250;2023-02-01T13:32:07;9.10;99.90
5962;DHT22;3007;50.770;0.250;2023-02-01T13:35:08;9.20;99.90
5962;DHT22;3007;50.770;0.250;2023-02-01T13:40:41;9.50;99.90
5962;DHT22;3007;50.770;0.250;2023-02-01T13:43:13;9.60;99.90
5962;DHT22;3007;50.770;0.250;2023-02-01T13:45:47;9.70;99.90
5962;DHT22;3007;50.770;0.250;2023-02-01T13:48:21;9.80;99.90
5962;DHT22;3007;50.770;0.250;2023-02-01T13:50:52;9.80;99.90
5962;DHT22;3007;50.770;0.250;2023-02-01T13:53:27;9.80;99.90
5962;DHT22;3007;50.770;0.250;2023-02-01T13:55:58;9.70;99.90
5962;DHT22;3007;50.770;0.250;2023-02-01T13:58:31;9.70;99.90
5962;DHT22;3007;50.770;0.250;2023-02-01T14:04:47;9.70;99.90
5962;DHT22;3007;50.770;0.250;2023-02-01T14:07:19;9.60;99.90
5962;DHT22;3007;50.770;0.250;2023-02-01T14:09:46;9.60;99.90
5962;DHT22;3007;50.770;0.250;2023-02-01T14:12:42;9.50;99.90
5962;DHT22;3007;50.770;0.250;2023-02-01T14:15:22;9.50;99.90
5962;DHT22;3007;50.770;0.250;2023-02-01T14:17:49;9.40;99.90
5962;DHT22;3007;50.770;0.250;2023-02-01T14:20:45;9.30;99.90
5962;DHT22;3007;50.770;0.250;2023-02-01T14:23:22;9.30;99.90
5962;DHT22;3007;50.770;0.250;2023-02-01T14:26:05;9.30;99.90
5962;DHT22;3007;50.770;0.250;2023-02-01T14:28:36;9.30;99.90
5962;DHT22;3007;50.770;0.250;2023-02-01T14:34:03;9.30;99.90
5962;DHT22;3007;50.770;0.250;2023-02-01T14:36:50;9.20;99.90
5962;DHT22;3007;50.770;0.250;2023-02-01T14:39:26;9.20;99.90
5962;DHT22;3007;50.770;0.250;2023-02-01T14:41:56;9.20;99.90
5962;DHT22;3007;50.770;0.250;2023-02-01T14:44:27;9.20;99.90
5962;DHT22;3007;50.770;0.250;2023-02-01T14:50:21;9.20;99.90
5962;DHT22;3007;50.770;0.250;2023-02-01T14:53:04;9.30;99.90
5962;DHT22;3007;50.770;0.250;2023-02-01T14:55:37;9.30;99.90
5962;DHT22;3007;50.770;0.250;2023-02-01T14:58:13;9.30;99.90
5962;DHT22;3007;50.770;0.250;2023-02-01T15:00:50;9.30;99.90
5962;DHT22;3007;50.770;0.250;2023-02-01T15:03:39;9.30;99.90
5962;DHT22;3007;50.770;0.250;2023-02-01T15:06:29;9.30;99.90
5962;DHT22;3007;50.770;0.250;2023-02-01T15:09:00;9.30;99.90
5962;DHT22;3007;50.770;0.250;2023-02-01T15:11:28;9.40;99.90
5962;DHT22;3007;50.770;0.250;2023-02-01T15:13:56;9.40;99.90
5962;DHT22;3007;50.770;0.250;2023-02-01T15:16:26;9.40;99.90
5962;DHT22;3007;50.770;0.250;2023-02-01T15:19:10;9.40;99.90
5962;DHT22;3007;50.770;0.250;2023-02-01T15:21:44;9.40;99.90
5962;DHT22;3007;50.770;0.250;2023-02-01T15:24:18;9.40;99.90
5962;DHT22;3007;50.770;0.250;2023-02-01T15:26:45;9.40;99.90
5962;DHT22;3007;50.770;0.250;2023-02-01T15:29:13;9.40;99.90
5962;DHT22;3007;50.770;0.250;2023-02-01T15:31:41;9.30;99.90
5962;DHT22;3007;50.770;0.250;2023-02-01T15:34:10;9.30;99.90
5962;DHT22;3007;50.770;0.250;2023-02-01T15:36:41;9.20;99.90
5962;DHT22;3007;50.770;0.250;2023-02-01T15:39:18;9.20;99.90
5962;DHT22;3007;50.770;0.250;2023-02-01T15:41:50;9.20;99.90
5962;DHT22;3007;50.770;0.250;2023-02-01T15:44:21;9.10;99.90
5962;DHT22;3007;50.770;0.250;2023-02-01T15:46:53;9.10;99.90
5962;DHT22;3007;50.770;0.250;2023-02-01T15:49:25;9.10;99.90
5962;DHT22;3007;50.770;0.250;2023-02-01T15:51:53;9.10;99.90
5962;DHT22;3007;50.770;0.250;2023-02-01T15:54:24;9.10;99.90
5962;DHT22;3007;50.770;0.250;2023-02-01T15:56:54;9.20;99.90
5962;DHT22;3007;50.770;0.250;2023-02-01T15:59:23;9.10;99.90
5962;DHT22;3007;50.770;0.250;2023-02-01T16:01:51;9.10;99.90
5962;DHT22;3007;50.770;0.250;2023-02-01T16:04:19;9.00;99.90
5962;DHT22;3007;50.770;0.250;2023-02-01T16:06:49;9.00;99.90
5962;DHT22;3007;50.770;0.250;2023-02-01T16:09:18;8.90;99.90
5962;DHT22;3007;50.770;0.250;2023-02-01T16:11:55;8.80;99.90
5962;DHT22;3007;50.770;0.250;2023-02-01T16:14:24;8.80;99.90
5962;DHT22;3007;50.770;0.250;2023-02-01T16:16:53;8.70;99.90
5962;DHT22;3007;50.770;0.250;2023-02-01T16:19:20;8.70;99.90
5962;DHT22;3007;50.770;0.250;2023-02-01T16:21:49;8.60;99.90
5962;DHT22;3007;50.770;0.250;2023-02-01T16:24:16;8.60;99.90
5962;DHT22;3007;50.770;0.250;2023-02-01T16:26:43;8.50;99.90
5962;DHT22;3007;50.770;0.250;2023-02-01T16:29:11;8.50;99.90
5962;DHT22;3007;50.770;0.250;2023-02-01T16:31:39;8.40;99.90
5962;DHT22;3007;50.770;0.250;2023-02-01T16:34:09;8.30;99.90
5962;DHT22;3007;50.770;0.250;2023-02-01T16:36:37;8.30;99.90
5962;DHT22;3007;50.770;0.250;2023-02-01T16:39:04;8.20;99.90
5962;DHT22;3007;50.770;0.250;2023-02-01T16:41:32;8.20;99.90
5962;DHT22;3007;50.770;0.250;2023-02-01T16:43:59;8.20;99.90
5962;DHT22;3007;50.770;0.250;2023-02-01T16:46:31;8.20;99.90
5962;DHT22;3007;50.770;0.250;2023-02-01T16:49:00;8.20;99.90
5962;DHT22;3007;50.770;0.250;2023-02-01T16:51:29;8.20;99.90
5962;DHT22;3007;50.770;0.250;2023-02-01T16:53:58;8.20;99.90
5962;DHT22;3007;50.770;0.250;2023-02-01T16:56:29;8.20;99.90
5962;DHT22;3007;50.770;0.250;2023-02-01T16:58:56;8.20;99.90
5962;DHT22;3007;50.770;0.250;2023-02-01T17:01:24;8.20;99.90
5962;DHT22;3007;50.770;0.250;2023-02-01T17:03:52;8.20;99.90
5962;DHT22;3007;50.770;0.250;2023-02-01T17:06:21;8.20;99.90